Dalston, United Kingdom
Current Conditions -  °F | °C
As of 11:50 PM on Wednesday 26 Nov 2014 (Local Time) from EGLC Reporting Station
Light Rain Light Rain  
Wind Chill: 50°   Ceiling: 100
Heat Index: 50°   Visibility: 0.81mi
Dew Point: 50°   Wind: 6mph
Humidity: 100%   Direction: 90°E
Pressure: 29.71"   Gusts: NA
Location:  51.54°N, 0.06°W
Report Text: EGLC 262350Z AUTO 09005KT 1300 -RA OVC001/// 10/10 Q1006 RERA
Loading
Personal Weather Stations






























Interactive Weather Map New forecast layout! Learn more

10-Day Weather Forecast

Advertisements
Track Severe Weather on mobile